sensor_id;sensor_type;location;lat;lon;timestamp;pressure;altitude;pressure_sealevel;temperature;humidity
76590;BME280;65471;55.908;37.880;2023-05-07T00:01:42;100834.84;;;0.72;69.84
76590;BME280;65471;55.908;37.880;2023-05-07T00:04:09;100837.63;;;0.70;69.74
76590;BME280;65471;55.908;37.880;2023-05-07T00:06:36;100847.44;;;0.69;69.79
76590;BME280;65471;55.908;37.880;2023-05-07T00:09:03;100837.06;;;0.66;70.16
76590;BME280;65471;55.908;37.880;2023-05-07T00:11:31;100846.75;;;0.67;69.81
76590;BME280;65471;55.908;37.880;2023-05-07T00:13:58;100847.84;;;0.65;70.33
76590;BME280;65471;55.908;37.880;2023-05-07T00:16:25;100844.63;;;0.61;70.61
76590;BME280;65471;55.908;37.880;2023-05-07T00:18:52;100845.63;;;0.60;70.70
76590;BME280;65471;55.908;37.880;2023-05-07T00:21:19;100852.88;;;0.58;70.28
76590;BME280;65471;55.908;37.880;2023-05-07T00:23:46;100854.72;;;0.58;70.66
76590;BME280;65471;55.908;37.880;2023-05-07T00:26:13;100847.16;;;0.53;70.63
76590;BME280;65471;55.908;37.880;2023-05-07T00:28:39;100853.31;;;0.54;70.84
76590;BME280;65471;55.908;37.880;2023-05-07T00:31:07;100848.13;;;0.52;70.82
76590;BME280;65471;55.908;37.880;2023-05-07T00:33:34;100847.31;;;0.51;70.97
76590;BME280;65471;55.908;37.880;2023-05-07T00:36:01;100842.25;;;0.48;70.84
76590;BME280;65471;55.908;37.880;2023-05-07T00:38:28;100851.50;;;0.44;70.79
76590;BME280;65471;55.908;37.880;2023-05-07T00:40:55;100857.94;;;0.42;70.84
76590;BME280;65471;55.908;37.880;2023-05-07T00:43:22;100854.56;;;0.40;70.88
76590;BME280;65471;55.908;37.880;2023-05-07T00:45:49;100858.09;;;0.40;71.23
76590;BME280;65471;55.908;37.880;2023-05-07T00:48:16;100865.34;;;0.38;71.47
76590;BME280;65471;55.908;37.880;2023-05-07T00:50:44;100864.66;;;0.36;71.26
76590;BME280;65471;55.908;37.880;2023-05-07T00:53:12;100863.25;;;0.32;70.90
76590;BME280;65471;55.908;37.880;2023-05-07T00:55:39;100864.22;;;0.31;71.16
76590;BME280;65471;55.908;37.880;2023-05-07T00:58:06;100861.69;;;0.29;71.58
76590;BME280;65471;55.908;37.880;2023-05-07T01:00:33;100862.81;;;0.27;71.29
76590;BME280;65471;55.908;37.880;2023-05-07T01:03:00;100866.47;;;0.26;71.41
76590;BME280;65471;55.908;37.880;2023-05-07T01:05:28;100859.31;;;0.26;71.52
76590;BME280;65471;55.908;37.880;2023-05-07T01:07:58;100862.13;;;0.25;71.63
76590;BME280;65471;55.908;37.880;2023-05-07T01:10:27;100855.25;;;0.22;71.47
76590;BME280;65471;55.908;37.880;2023-05-07T01:12:58;100856.22;;;0.21;71.46
76590;BME280;65471;55.908;37.880;2023-05-07T01:15:26;100862.53;;;0.20;71.55
76590;BME280;65471;55.908;37.880;2023-05-07T01:17:53;100859.56;;;0.13;71.99
76590;BME280;65471;55.908;37.880;2023-05-07T01:20:20;100858.03;;;0.11;72.39
76590;BME280;65471;55.908;37.880;2023-05-07T01:22:47;100860.00;;;0.09;71.82
76590;BME280;65471;55.908;37.880;2023-05-07T01:25:14;100863.75;;;0.06;72.07
76590;BME280;65471;55.908;37.880;2023-05-07T01:27:42;100863.91;;;0.05;72.27
76590;BME280;65471;55.908;37.880;2023-05-07T01:30:10;100860.25;;;0.06;72.27
76590;BME280;65471;55.908;37.880;2023-05-07T01:35:15;100860.00;;;0.09;72.25
76590;BME280;65471;55.908;37.880;2023-05-07T01:37:44;100865.44;;;0.07;72.08
76590;BME280;65471;55.908;37.880;2023-05-07T01:40:14;100867.53;;;0.04;72.10
76590;BME280;65471;55.908;37.880;2023-05-07T01:42:41;100869.34;;;0.03;72.35
76590;BME280;65471;55.908;37.880;2023-05-07T01:45:09;100875.06;;;-0.02;72.37
76590;BME280;65471;55.908;37.880;2023-05-07T01:47:37;100877.72;;;-0.02;72.32
76590;BME280;65471;55.908;37.880;2023-05-07T01:50:07;100882.19;;;-0.02;72.22
76590;BME280;65471;55.908;37.880;2023-05-07T01:52:38;100882.06;;;-0.01;72.86
76590;BME280;65471;55.908;37.880;2023-05-07T01:55:05;100889.75;;;0.03;72.66
76590;BME280;65471;55.908;37.880;2023-05-07T01:57:32;100896.78;;;0.04;72.64
76590;BME280;65471;55.908;37.880;2023-05-07T01:59:59;100893.16;;;0.05;72.77
76590;BME280;65471;55.908;37.880;2023-05-07T02:02:26;100891.19;;;0.07;72.77
76590;BME280;65471;55.908;37.880;2023-05-07T02:04:53;100899.28;;;0.05;73.20
76590;BME280;65471;55.908;37.880;2023-05-07T02:07:20;100899.03;;;0.08;73.01
76590;BME280;65471;55.908;37.880;2023-05-07T02:09:47;100896.94;;;0.12;73.23
76590;BME280;65471;55.908;37.880;2023-05-07T02:12:14;100898.63;;;0.13;72.99
76590;BME280;65471;55.908;37.880;2023-05-07T02:14:41;100905.19;;;0.09;73.04
76590;BME280;65471;55.908;37.880;2023-05-07T02:17:08;100898.63;;;0.13;72.76
76590;BME280;65471;55.908;37.880;2023-05-07T02:19:35;100910.66;;;0.17;73.20
76590;BME280;65471;55.908;37.880;2023-05-07T02:22:02;100912.22;;;0.20;72.98
76590;BME280;65471;55.908;37.880;2023-05-07T02:24:29;100904.09;;;0.21;72.92
76590;BME280;65471;55.908;37.880;2023-05-07T02:26:56;100905.09;;;0.20;72.98
76590;BME280;65471;55.908;37.880;2023-05-07T02:29:23;100910.81;;;0.25;72.81
76590;BME280;65471;55.908;37.880;2023-05-07T02:31:50;100916.88;;;0.27;72.49
76590;BME280;65471;55.908;37.880;2023-05-07T02:34:19;100922.88;;;0.29;72.46
76590;BME280;65471;55.908;37.880;2023-05-07T02:36:46;100922.03;;;0.29;73.01
76590;BME280;65471;55.908;37.880;2023-05-07T02:39:13;100933.25;;;0.32;72.92
76590;BME280;65471;55.908;37.880;2023-05-07T02:41:40;100931.31;;;0.34;72.82
76590;BME280;65471;55.908;37.880;2023-05-07T02:44:07;100935.75;;;0.34;73.05
76590;BME280;65471;55.908;37.880;2023-05-07T02:46:34;100938.44;;;0.34;72.91
76590;BME280;65471;55.908;37.880;2023-05-07T02:49:01;100944.31;;;0.38;72.91
76590;BME280;65471;55.908;37.880;2023-05-07T02:51:30;100939.69;;;0.40;72.98
76590;BME280;65471;55.908;37.880;2023-05-07T02:53:58;100934.22;;;0.41;72.82
76590;BME280;65471;55.908;37.880;2023-05-07T02:56:26;100946.28;;;0.45;72.74
76590;BME280;65471;55.908;37.880;2023-05-07T02:58:53;100950.66;;;0.46;72.95
76590;BME280;65471;55.908;37.880;2023-05-07T03:01:20;100946.88;;;0.49;73.13
76590;BME280;65471;55.908;37.880;2023-05-07T03:03:47;100945.75;;;0.51;73.00
76590;BME280;65471;55.908;37.880;2023-05-07T03:06:14;100943.66;;;0.55;72.75
76590;BME280;65471;55.908;37.880;2023-05-07T03:08:42;100940.84;;;0.57;73.11
76590;BME280;65471;55.908;37.880;2023-05-07T03:11:09;100946.75;;;0.60;73.13
76590;BME280;65471;55.908;37.880;2023-05-07T03:13:36;100953.50;;;0.64;73.06
76590;BME280;65471;55.908;37.880;2023-05-07T03:16:03;100953.91;;;0.69;72.52
76590;BME280;65471;55.908;37.880;2023-05-07T03:18:30;100963.56;;;0.71;72.83
76590;BME280;65471;55.908;37.880;2023-05-07T03:20:57;100963.44;;;0.72;72.36
76590;BME280;65471;55.908;37.880;2023-05-07T03:23:24;100965.69;;;0.77;72.60
76590;BME280;65471;55.908;37.880;2023-05-07T03:25:51;100974.25;;;0.80;72.37
76590;BME280;65471;55.908;37.880;2023-05-07T03:28:18;100977.44;;;0.84;72.65
76590;BME280;65471;55.908;37.880;2023-05-07T03:30:45;100972.72;;;0.88;72.55
76590;BME280;65471;55.908;37.880;2023-05-07T03:33:11;100987.44;;;0.92;71.98
76590;BME280;65471;55.908;37.880;2023-05-07T03:35:38;100979.31;;;0.93;72.25
76590;BME280;65471;55.908;37.880;2023-05-07T03:38:05;100982.50;;;0.97;72.00
76590;BME280;65471;55.908;37.880;2023-05-07T03:40:32;100984.06;;;0.99;71.99
76590;BME280;65471;55.908;37.880;2023-05-07T03:43:00;100981.53;;;1.08;72.05
76590;BME280;65471;55.908;37.880;2023-05-07T03:45:27;100986.44;;;1.12;71.76
76590;BME280;65471;55.908;37.880;2023-05-07T03:47:54;100994.03;;;1.17;71.96
76590;BME280;65471;55.908;37.880;2023-05-07T03:50:21;100987.28;;;1.23;71.80
76590;BME280;65471;55.908;37.880;2023-05-07T03:52:48;100984.22;;;1.27;71.44
76590;BME280;65471;55.908;37.880;2023-05-07T03:55:14;100988.81;;;1.35;71.19
76590;BME280;65471;55.908;37.880;2023-05-07T03:57:41;100987.41;;;1.41;71.21
76590;BME280;65471;55.908;37.880;2023-05-07T04:00:08;100992.88;;;1.49;71.13
76590;BME280;65471;55.908;37.880;2023-05-07T04:02:36;100995.69;;;1.57;71.44
76590;BME280;65471;55.908;37.880;2023-05-07T04:05:03;100991.59;;;1.63;71.37
76590;BME280;65471;55.908;37.880;2023-05-07T04:07:30;100989.34;;;1.68;71.61
76590;BME280;65471;55.908;37.880;2023-05-07T04:09:57;100991.59;;;1.72;71.06
76590;BME280;65471;55.908;37.880;2023-05-07T04:12:24;100989.03;;;1.81;70.33
76590;BME280;65471;55.908;37.880;2023-05-07T04:14:51;100995.47;;;1.88;70.52
76590;BME280;65471;55.908;37.880;2023-05-07T04:17:18;100997.72;;;1.93;70.09
76590;BME280;65471;55.908;37.880;2023-05-07T04:19:45;100988.97;;;2.00;69.37
76590;BME280;65471;55.908;37.880;2023-05-07T04:22:12;100994.00;;;2.03;69.49
76590;BME280;65471;55.908;37.880;2023-05-07T04:24:39;100996.38;;;2.06;68.80
76590;BME280;65471;55.908;37.880;2023-05-07T04:27:06;100999.63;;;2.10;68.68
76590;BME280;65471;55.908;37.880;2023-05-07T04:29:33;101000.16;;;2.14;68.05
76590;BME280;65471;55.908;37.880;2023-05-07T04:31:59;101004.06;;;2.19;68.24
76590;BME280;65471;55.908;37.880;2023-05-07T04:34:27;101001.81;;;2.24;68.14
76590;BME280;65471;55.908;37.880;2023-05-07T04:36:53;101012.19;;;2.28;67.56
76590;BME280;65471;55.908;37.880;2023-05-07T04:39:20;101004.72;;;2.31;67.14
76590;BME280;65471;55.908;37.880;2023-05-07T04:41:47;101004.69;;;2.41;67.15
76590;BME280;65471;55.908;37.880;2023-05-07T04:44:14;101010.41;;;2.46;67.20
76590;BME280;65471;55.908;37.880;2023-05-07T04:46:41;101013.78;;;2.48;66.85
76590;BME280;65471;55.908;37.880;2023-05-07T04:49:08;101017.53;;;2.55;66.85
76590;BME280;65471;55.908;37.880;2023-05-07T04:51:35;101015.41;;;2.59;66.63
76590;BME280;65471;55.908;37.880;2023-05-07T04:54:01;101022.13;;;2.63;66.39
76590;BME280;65471;55.908;37.880;2023-05-07T04:56:29;101020.84;;;2.67;66.46
76590;BME280;65471;55.908;37.880;2023-05-07T04:58:58;101011.09;;;2.76;65.95
76590;BME280;65471;55.908;37.880;2023-05-07T05:01:25;101015.00;;;2.82;65.51
76590;BME280;65471;55.908;37.880;2023-05-07T05:03:52;101013.56;;;2.87;65.09
76590;BME280;65471;55.908;37.880;2023-05-07T05:06:19;101013.78;;;2.94;64.96
76590;BME280;65471;55.908;37.880;2023-05-07T05:08:46;101013.03;;;3.02;64.74
76590;BME280;65471;55.908;37.880;2023-05-07T05:11:13;101021.81;;;3.12;64.22
76590;BME280;65471;55.908;37.880;2023-05-07T05:13:40;101015.41;;;3.23;63.93
76590;BME280;65471;55.908;37.880;2023-05-07T05:16:07;101014.13;;;3.27;62.94
76590;BME280;65471;55.908;37.880;2023-05-07T05:18:34;101019.97;;;3.31;62.57
76590;BME280;65471;55.908;37.880;2023-05-07T05:21:01;101017.22;;;3.40;61.58
76590;BME280;65471;55.908;37.880;2023-05-07T05:23:28;101015.44;;;3.49;61.16
76590;BME280;65471;55.908;37.880;2023-05-07T05:25:57;101017.38;;;3.57;61.33
76590;BME280;65471;55.908;37.880;2023-05-07T05:28:24;101016.25;;;3.68;60.81
76590;BME280;65471;55.908;37.880;2023-05-07T05:30:51;101023.84;;;3.72;60.15
76590;BME280;65471;55.908;37.880;2023-05-07T05:33:18;101018.50;;;3.72;59.88
76590;BME280;65471;55.908;37.880;2023-05-07T05:35:45;101017.03;;;3.78;60.19
76590;BME280;65471;55.908;37.880;2023-05-07T05:38:12;101017.75;;;3.88;59.46
76590;BME280;65471;55.908;37.880;2023-05-07T05:40:41;101024.69;;;3.99;58.77
76590;BME280;65471;55.908;37.880;2023-05-07T05:43:08;101016.88;;;4.06;57.71
76590;BME280;65471;55.908;37.880;2023-05-07T05:45:35;101023.75;;;4.08;57.21
76590;BME280;65471;55.908;37.880;2023-05-07T05:48:02;101021.72;;;4.10;57.24
76590;BME280;65471;55.908;37.880;2023-05-07T05:50:28;101022.81;;;4.18;57.79
76590;BME280;65471;55.908;37.880;2023-05-07T05:52:55;101019.00;;;4.28;58.09
76590;BME280;65471;55.908;37.880;2023-05-07T05:55:23;101024.06;;;4.40;57.55
76590;BME280;65471;55.908;37.880;2023-05-07T05:57:50;101032.00;;;4.49;56.83
76590;BME280;65471;55.908;37.880;2023-05-07T06:00:17;101029.34;;;4.58;56.71
76590;BME280;65471;55.908;37.880;2023-05-07T06:02:44;101028.53;;;4.65;55.33
76590;BME280;65471;55.908;37.880;2023-05-07T06:05:11;101023.22;;;4.74;54.17
76590;BME280;65471;55.908;37.880;2023-05-07T06:07:38;101023.03;;;4.75;53.23
76590;BME280;65471;55.908;37.880;2023-05-07T06:10:06;101031.09;;;4.83;53.64
76590;BME280;65471;55.908;37.880;2023-05-07T06:12:33;101032.13;;;4.91;53.12
76590;BME280;65471;55.908;37.880;2023-05-07T06:15:00;101025.78;;;5.00;52.62
76590;BME280;65471;55.908;37.880;2023-05-07T06:17:28;101035.38;;;5.11;50.71
76590;BME280;65471;55.908;37.880;2023-05-07T06:19:55;101049.63;;;5.19;50.78
76590;BME280;65471;55.908;37.880;2023-05-07T06:22:21;101038.91;;;5.28;49.96
76590;BME280;65471;55.908;37.880;2023-05-07T06:24:48;101032.53;;;5.37;50.36
76590;BME280;65471;55.908;37.880;2023-05-07T06:27:15;101049.00;;;5.50;48.92
76590;BME280;65471;55.908;37.880;2023-05-07T06:29:42;101047.47;;;5.48;49.16
76590;BME280;65471;55.908;37.880;2023-05-07T06:32:13;101047.63;;;5.38;48.50
76590;BME280;65471;55.908;37.880;2023-05-07T06:34:41;101049.50;;;5.46;48.34
76590;BME280;65471;55.908;37.880;2023-05-07T06:37:08;101055.00;;;5.44;47.71
76590;BME280;65471;55.908;37.880;2023-05-07T06:39:35;101045.63;;;5.40;47.57
76590;BME280;65471;55.908;37.880;2023-05-07T06:42:02;101057.03;;;5.42;47.85
76590;BME280;65471;55.908;37.880;2023-05-07T06:44:31;101041.78;;;5.34;47.65
76590;BME280;65471;55.908;37.880;2023-05-07T06:46:58;101049.81;;;5.26;48.66
76590;BME280;65471;55.908;37.880;2023-05-07T06:49:25;101052.31;;;5.19;48.73
76590;BME280;65471;55.908;37.880;2023-05-07T06:51:52;101045.91;;;5.12;48.98
76590;BME280;65471;55.908;37.880;2023-05-07T06:54:19;101050.44;;;5.12;48.44
76590;BME280;65471;55.908;37.880;2023-05-07T06:56:46;101050.31;;;5.22;48.87
76590;BME280;65471;55.908;37.880;2023-05-07T06:59:13;101053.97;;;5.21;48.62
76590;BME280;65471;55.908;37.880;2023-05-07T07:01:40;101045.25;;;5.18;48.33
76590;BME280;65471;55.908;37.880;2023-05-07T07:04:07;101052.34;;;5.36;48.03
76590;BME280;65471;55.908;37.880;2023-05-07T07:06:34;101052.00;;;5.56;46.74
76590;BME280;65471;55.908;37.880;2023-05-07T07:09:01;101031.72;;;5.78;45.72
76590;BME280;65471;55.908;37.880;2023-05-07T07:11:28;101039.06;;;5.92;44.88
76590;BME280;65471;55.908;37.880;2023-05-07T07:13:55;101044.13;;;6.12;44.76
76590;BME280;65471;55.908;37.880;2023-05-07T07:16:23;101052.81;;;6.30;44.42
76590;BME280;65471;55.908;37.880;2023-05-07T07:18:50;101045.56;;;6.39;41.97
76590;BME280;65471;55.908;37.880;2023-05-07T07:21:18;101037.47;;;6.47;42.30
76590;BME280;65471;55.908;37.880;2023-05-07T07:23:44;101039.78;;;6.59;42.68
76590;BME280;65471;55.908;37.880;2023-05-07T07:26:11;101033.66;;;6.73;42.46
76590;BME280;65471;55.908;37.880;2023-05-07T07:28:56;101034.09;;;6.85;43.03
76590;BME280;65471;55.908;37.880;2023-05-07T07:31:23;101047.78;;;6.98;42.64
76590;BME280;65471;55.908;37.880;2023-05-07T07:33:50;101038.16;;;7.12;41.88
76590;BME280;65471;55.908;37.880;2023-05-07T07:36:18;101036.22;;;7.21;41.70
76590;BME280;65471;55.908;37.880;2023-05-07T07:38:47;101046.13;;;7.29;41.19
76590;BME280;65471;55.908;37.880;2023-05-07T07:41:14;101035.94;;;7.16;41.10
76590;BME280;65471;55.908;37.880;2023-05-07T07:43:41;101043.91;;;7.01;42.23
76590;BME280;65471;55.908;37.880;2023-05-07T07:46:08;101044.63;;;6.95;42.63
76590;BME280;65471;55.908;37.880;2023-05-07T07:48:35;101042.34;;;6.83;42.26
76590;BME280;65471;55.908;37.880;2023-05-07T07:51:02;101034.19;;;6.68;42.48
76590;BME280;65471;55.908;37.880;2023-05-07T07:53:29;101041.75;;;6.65;42.38
76590;BME280;65471;55.908;37.880;2023-05-07T07:55:56;101032.38;;;6.61;42.08
76590;BME280;65471;55.908;37.880;2023-05-07T07:58:25;101037.19;;;6.73;41.32
76590;BME280;65471;55.908;37.880;2023-05-07T08:00:52;101033.38;;;6.91;41.83
76590;BME280;65471;55.908;37.880;2023-05-07T08:03:19;101032.81;;;7.04;41.11
76590;BME280;65471;55.908;37.880;2023-05-07T08:05:46;101027.69;;;7.17;39.20
76590;BME280;65471;55.908;37.880;2023-05-07T08:08:13;101024.66;;;7.20;39.29
76590;BME280;65471;55.908;37.880;2023-05-07T08:10:40;101023.03;;;7.34;39.43
76590;BME280;65471;55.908;37.880;2023-05-07T08:13:07;101025.53;;;7.59;39.48
76590;BME280;65471;55.908;37.880;2023-05-07T08:15:34;101022.78;;;7.67;39.53
76590;BME280;65471;55.908;37.880;2023-05-07T08:18:02;101016.69;;;7.50;39.55
76590;BME280;65471;55.908;37.880;2023-05-07T08:20:29;101025.25;;;7.31;40.16
76590;BME280;65471;55.908;37.880;2023-05-07T08:22:56;101029.44;;;7.10;40.86
76590;BME280;65471;55.908;37.880;2023-05-07T08:25:23;101020.09;;;7.21;41.61
76590;BME280;65471;55.908;37.880;2023-05-07T08:27:50;101030.72;;;7.60;40.47
76590;BME280;65471;55.908;37.880;2023-05-07T08:30:17;101021.03;;;7.89;38.89
76590;BME280;65471;55.908;37.880;2023-05-07T08:32:44;101026.44;;;7.89;39.09
76590;BME280;65471;55.908;37.880;2023-05-07T08:35:10;101028.56;;;7.79;38.99
76590;BME280;65471;55.908;37.880;2023-05-07T08:37:37;101035.75;;;7.64;39.32
76590;BME280;65471;55.908;37.880;2023-05-07T08:40:05;101034.97;;;7.55;39.71
76590;BME280;65471;55.908;37.880;2023-05-07T08:42:36;101029.84;;;7.45;39.76
76590;BME280;65471;55.908;37.880;2023-05-07T08:45:09;101029.31;;;7.26;39.65
76590;BME280;65471;55.908;37.880;2023-05-07T08:47:58;101023.63;;;7.21;40.15
76590;BME280;65471;55.908;37.880;2023-05-07T08:50:25;101023.38;;;7.54;39.50
76590;BME280;65471;55.908;37.880;2023-05-07T08:52:52;101027.75;;;7.93;39.24
76590;BME280;65471;55.908;37.880;2023-05-07T08:55:20;101016.34;;;8.36;38.01
76590;BME280;65471;55.908;37.880;2023-05-07T08:57:47;101023.13;;;8.62;37.63
76590;BME280;65471;55.908;37.880;2023-05-07T09:00:15;101022.22;;;8.70;37.36
76590;BME280;65471;55.908;37.880;2023-05-07T09:02:42;101014.22;;;8.61;34.96
76590;BME280;65471;55.908;37.880;2023-05-07T09:05:09;101016.72;;;8.33;35.43
76590;BME280;65471;55.908;37.880;2023-05-07T09:07:36;101022.47;;;8.15;36.52
76590;BME280;65471;55.908;37.880;2023-05-07T09:10:04;101022.94;;;8.04;37.75
76590;BME280;65471;55.908;37.880;2023-05-07T09:12:31;101014.00;;;7.88;37.84
76590;BME280;65471;55.908;37.880;2023-05-07T09:14:59;101029.13;;;7.89;38.51
76590;BME280;65471;55.908;37.880;2023-05-07T09:17:26;101019.78;;;8.00;38.26
76590;BME280;65471;55.908;37.880;2023-05-07T09:19:53;101016.44;;;8.13;38.11
76590;BME280;65471;55.908;37.880;2023-05-07T09:22:20;101005.84;;;8.26;37.96
76590;BME280;65471;55.908;37.880;2023-05-07T09:24:48;100999.97;;;8.38;38.20
76590;BME280;65471;55.908;37.880;2023-05-07T09:27:17;100999.91;;;8.46;37.92
76590;BME280;65471;55.908;37.880;2023-05-07T09:29:45;101006.03;;;8.70;37.16
76590;BME280;65471;55.908;37.880;2023-05-07T09:32:12;101007.16;;;8.97;37.12
76590;BME280;65471;55.908;37.880;2023-05-07T09:34:41;100998.50;;;9.23;35.83
76590;BME280;65471;55.908;37.880;2023-05-07T09:37:08;100995.75;;;9.17;35.58
76590;BME280;65471;55.908;37.880;2023-05-07T09:39:46;100995.56;;;9.18;36.60
76590;BME280;65471;55.908;37.880;2023-05-07T09:42:13;101000.19;;;9.03;36.13
76590;BME280;65471;55.908;37.880;2023-05-07T09:44:43;100999.59;;;9.07;35.54
76590;BME280;65471;55.908;37.880;2023-05-07T09:47:11;100997.94;;;9.28;35.67
76590;BME280;65471;55.908;37.880;2023-05-07T09:49:43;101005.38;;;9.47;35.88
76590;BME280;65471;55.908;37.880;2023-05-07T09:52:14;101003.88;;;9.66;35.77
76590;BME280;65471;55.908;37.880;2023-05-07T09:54:43;101004.66;;;9.60;35.89
76590;BME280;65471;55.908;37.880;2023-05-07T09:57:11;101004.88;;;9.37;35.02
76590;BME280;65471;55.908;37.880;2023-05-07T09:59:42;101008.19;;;9.18;35.17
76590;BME280;65471;55.908;37.880;2023-05-07T10:02:11;100994.13;;;9.01;35.05
76590;BME280;65471;55.908;37.880;2023-05-07T10:04:40;100997.44;;;8.81;35.47
76590;BME280;65471;55.908;37.880;2023-05-07T10:07:07;101006.28;;;8.75;35.84
76590;BME280;65471;55.908;37.880;2023-05-07T10:09:35;101009.75;;;8.69;36.01
76590;BME280;65471;55.908;37.880;2023-05-07T10:12:05;101008.63;;;8.63;36.31
76590;BME280;65471;55.908;37.880;2023-05-07T10:14:33;101004.25;;;8.77;36.89
76590;BME280;65471;55.908;37.880;2023-05-07T10:17:02;100998.97;;;9.27;36.45
76590;BME280;65471;55.908;37.880;2023-05-07T10:19:29;100994.78;;;10.02;36.42
76590;BME280;65471;55.908;37.880;2023-05-07T10:22:02;100992.69;;;10.75;34.46
76590;BME280;65471;55.908;37.880;2023-05-07T10:24:35;100995.06;;;11.04;34.10
76590;BME280;65471;55.908;37.880;2023-05-07T10:27:11;100983.63;;;11.16;33.79
76590;BME280;65471;55.908;37.880;2023-05-07T10:29:47;100989.25;;;11.21;33.51
76590;BME280;65471;55.908;37.880;2023-05-07T10:34:48;100985.75;;;11.54;32.70
76590;BME280;65471;55.908;37.880;2023-05-07T10:37:17;100989.88;;;11.10;31.89
76590;BME280;65471;55.908;37.880;2023-05-07T10:39:44;100985.94;;;10.57;32.16
76590;BME280;65471;55.908;37.880;2023-05-07T10:42:12;100994.28;;;10.21;32.60
76590;BME280;65471;55.908;37.880;2023-05-07T10:44:40;100988.06;;;9.92;33.24
76590;BME280;65471;55.908;37.880;2023-05-07T10:47:11;100994.19;;;9.79;34.17
76590;BME280;65471;55.908;37.880;2023-05-07T10:52:16;100991.50;;;9.50;34.77
76590;BME280;65471;55.908;37.880;2023-05-07T10:54:46;100991.69;;;9.27;34.99
76590;BME280;65471;55.908;37.880;2023-05-07T10:59:58;100988.59;;;8.87;35.00
76590;BME280;65471;55.908;37.880;2023-05-07T11:05:29;100994.78;;;9.03;35.03
76590;BME280;65471;55.908;37.880;2023-05-07T11:08:01;100992.00;;;9.18;34.69
76590;BME280;65471;55.908;37.880;2023-05-07T11:13:15;100986.31;;;9.77;32.28
76590;BME280;65471;55.908;37.880;2023-05-07T11:15:46;100988.59;;;10.09;32.12
76590;BME280;65471;55.908;37.880;2023-05-07T11:18:15;100991.06;;;10.39;32.26
76590;BME280;65471;55.908;37.880;2023-05-07T11:26:10;100989.09;;;10.26;33.89
76590;BME280;65471;55.908;37.880;2023-05-07T11:28:39;100988.03;;;10.20;32.88
76590;BME280;65471;55.908;37.880;2023-05-07T11:31:06;100986.84;;;9.94;33.22
76590;BME280;65471;55.908;37.880;2023-05-07T11:33:34;100998.69;;;9.65;34.20
76590;BME280;65471;55.908;37.880;2023-05-07T11:36:03;100996.72;;;9.52;35.20
76590;BME280;65471;55.908;37.880;2023-05-07T11:38:30;101003.19;;;9.36;35.81
76590;BME280;65471;55.908;37.880;2023-05-07T11:40:59;101003.97;;;9.30;36.63
76590;BME280;65471;55.908;37.880;2023-05-07T11:43:27;101003.66;;;9.18;37.50
76590;BME280;65471;55.908;37.880;2023-05-07T11:45:54;101000.59;;;9.06;37.10
76590;BME280;65471;55.908;37.880;2023-05-07T11:48:21;100998.88;;;8.98;36.86
76590;BME280;65471;55.908;37.880;2023-05-07T11:50:52;101001.59;;;8.98;36.41
76590;BME280;65471;55.908;37.880;2023-05-07T11:53:20;101000.59;;;9.06;36.25
76590;BME280;65471;55.908;37.880;2023-05-07T11:55:57;100996.53;;;9.32;36.06
76590;BME280;65471;55.908;37.880;2023-05-07T11:58:24;101009.31;;;9.45;35.11
76590;BME280;65471;55.908;37.880;2023-05-07T12:00:54;101011.63;;;9.48;35.02
76590;BME280;65471;55.908;37.880;2023-05-07T12:03:21;101018.16;;;9.60;34.70
76590;BME280;65471;55.908;37.880;2023-05-07T12:05:48;101007.75;;;9.85;34.01
76590;BME280;65471;55.908;37.880;2023-05-07T12:08:16;101008.00;;;10.19;34.00
76590;BME280;65471;55.908;37.880;2023-05-07T12:10:46;100996.81;;;10.64;33.56
76590;BME280;65471;55.908;37.880;2023-05-07T12:13:25;100992.72;;;10.88;33.54
76590;BME280;65471;55.908;37.880;2023-05-07T12:15:53;100993.69;;;10.67;32.90
76590;BME280;65471;55.908;37.880;2023-05-07T12:18:21;100992.06;;;10.31;32.89
76590;BME280;65471;55.908;37.880;2023-05-07T12:20:49;100992.97;;;10.10;33.88
76590;BME280;65471;55.908;37.880;2023-05-07T12:23:17;100994.94;;;9.94;33.57
76590;BME280;65471;55.908;37.880;2023-05-07T12:25:45;100997.09;;;9.77;33.79
76590;BME280;65471;55.908;37.880;2023-05-07T12:28:15;100994.94;;;9.66;33.81
76590;BME280;65471;55.908;37.880;2023-05-07T12:30:45;100994.91;;;9.59;34.17
76590;BME280;65471;55.908;37.880;2023-05-07T12:33:16;100996.34;;;9.62;34.55
76590;BME280;65471;55.908;37.880;2023-05-07T12:35:43;100990.13;;;9.61;35.33
76590;BME280;65471;55.908;37.880;2023-05-07T12:38:14;100998.44;;;9.60;35.60
76590;BME280;65471;55.908;37.880;2023-05-07T12:40:45;100993.81;;;9.54;35.78
76590;BME280;65471;55.908;37.880;2023-05-07T12:43:24;100988.44;;;9.60;35.83
76590;BME280;65471;55.908;37.880;2023-05-07T12:45:52;100991.41;;;9.65;36.31
76590;BME280;65471;55.908;37.880;2023-05-07T12:48:21;100982.50;;;9.72;36.16
76590;BME280;65471;55.908;37.880;2023-05-07T12:50:54;100987.44;;;9.61;36.35
76590;BME280;65471;55.908;37.880;2023-05-07T12:53:24;100984.63;;;9.48;35.18
76590;BME280;65471;55.908;37.880;2023-05-07T12:55:55;100988.75;;;9.44;35.40
76590;BME280;65471;55.908;37.880;2023-05-07T12:58:27;100986.44;;;9.41;35.71
76590;BME280;65471;55.908;37.880;2023-05-07T13:00:58;100979.97;;;9.42;35.87
76590;BME280;65471;55.908;37.880;2023-05-07T13:03:32;100982.88;;;9.40;35.89
76590;BME280;65471;55.908;37.880;2023-05-07T13:06:05;100988.66;;;9.37;36.77
76590;BME280;65471;55.908;37.880;2023-05-07T13:08:35;100977.19;;;9.28;36.05
76590;BME280;65471;55.908;37.880;2023-05-07T13:11:08;100982.88;;;9.40;36.20
76590;BME280;65471;55.908;37.880;2023-05-07T13:13:36;100980.41;;;9.67;35.78
76590;BME280;65471;55.908;37.880;2023-05-07T13:16:04;100974.00;;;10.03;35.46